Terminal Aerodrome Forecast
Issued by NWS

Home | Current Version | Previous Version | Text Only | Print | Product List | Glossary On
Versions: 1 2 3 4 5 6 7 8 9 10 11 12 13 14 15 16 17 18 19 20 21 22 23 24 25 26 27 28 29 30 31 32 33 34
000
FTUS46 KPDT 240200 AAB
TAFALW
TAF AMD
KALW 240205Z 2402/2424 22011KT P6SM FEW030 SCT060
     FM240900 20006KT 2SM BR VCSH BKN006 OVC015
     FM241500 16007KT 5SM BR SCT006 BKN020 OVC035
     FM241900 20006KT P6SM FEW006 SCT020 BKN040
     FM242100 VRB03KT P6SM SCT080 BKN100=

USA.gov is the U.S. government's official web portal to all federal, state and local government web resources and services.